Strona 22 z 27

Re: Zdjęcia wschodów, zachodów Słońca, chmur, błyskawic

: 13 września 2018, 20:58
autor: Sensiss
Hej, wczorajszy zachód słońca. Dajcie znać czy te chmury nad blokiem mają coś wspólnego z lenticularis :-)

Obrazek



Obrazek


Pozdrawiam ;-)

Re: Zdjęcia wschodów, zachodów Słońca, chmur, błyskawic

: 01 listopada 2018, 19:46
autor: vader
Sensiss pisze:
13 września 2018, 20:58
Hej, wczorajszy zachód słońca. Dajcie znać czy te chmury nad blokiem mają coś wspólnego z lenticularis :-)
Oczywiście to chmury altocumulus lenticularis. Super foty! Zachęcam innych do wrzucania zdjęć chmur. Maciek, Tatry czy inne widoki też się tutaj nadają :-)

Ode mnie za to dzisiejsza iryzacja w okolicy Słońca.
Obrazek

A do obejrzenia kolejna część Monsoon V Mika Olbinskiego. 85 tys. zdjęć, 32 dni łowów i przejechane ponad 15 tys. mil :-)

Re: Zdjęcia wschodów, zachodów Słońca, chmur, błyskawic

: 15 listopada 2018, 00:00
autor: spinka
Pod linkiem do Monsoona V to wstyd już cokolwiek wrzucić :-P

Kilka fotek i timelaps-ów:

2018.09.24 przed zachodem, widok na SE:

2018.09.28 zachód:


2018.10.09 zachód:


2018.11.01 wschód:



2018.11.05 zachód:



2018.11.08 po wschodzie, jeszcze we mgle:

2018.11.11 zachód:


2018.11.13 zachód:

Re: Zdjęcia wschodów, zachodów Słońca, chmur, błyskawic

: 18 listopada 2018, 13:59
autor: vader
spinka pisze:
15 listopada 2018, 00:00
Pod linkiem do Monsoona V to wstyd już cokolwiek wrzucić :-P

Kilka fotek i timelaps-ów:
Świetna sprawa, miło pooglądać coś z domowego podwórka :-) Mała sugestia ode mnie, aby parametry na filmach były wyraźniejszą czcionką, bo słabo je widać. Jak się nic nie zmieni, to w ciągu roku będę mieć pytania w kontekście Twojej instalacja, ale póki co mam inne priorytety.

Przy okazji umieszczam film od Hank Pecos i od razu zachęcam zainteresowanych do przejrzenia jego twórczości w tematyce meteorologii.


Re: Zdjęcia wschodów, zachodów Słońca, chmur, błyskawic

: 30 listopada 2018, 00:39
autor: misiek153
Super ujęcia.

Re: Zdjęcia wschodów, zachodów Słońca, chmur, błyskawic

: 01 grudnia 2018, 09:29
autor: spinka
Wschód Słońca 2018.12.01



METAR EPPO 010500Z 13008KT CAVOK M07/M10 Q1017 =
METAR EPPO 010530Z 13007KT 9999 FEW046 M07/M10 Q1017 =
METAR EPPO 010600Z 13007KT 9999 BKN039 M06/M09 Q1017 =
METAR EPPO 010630Z 12006KT 9999 OVC028 M06/M09 Q1017 =
METAR EPPO 010700Z 13007KT 9999 OVC023 M06/M09 Q1017 =
METAR EPPO 010730Z 13007KT 9999 OVC018 M05/M09 Q1017 =
METAR EPPO 010800Z 13007KT 8000 -SN SCT018 BKN033 M05/M09 Q1016 =

Edit: A przy okazji to:


Edit2:
Wschód Słońca 2018.12.02:

Re: Zdjęcia wschodów, zachodów Słońca, chmur, błyskawic

: 15 grudnia 2018, 11:40
autor: spinka
Wschód Słońca 2018.12.02 *


Wschód Słońca 2018.12.06

* Ponownie, ale w wersji po "deflickeringu". Materiał źródłowy z którego składam timelapse, po złożeniu do filmu daje wyraźne migotanie. Jest to spowodowane tym, że zdjęcia wykonuję seriami na danych ustawieniach ekspozycji i następują nieuniknione skoki w ogólnej jasności zdjęć pomiędzy seriami zdjęć. Jakiś czas szukałem gotowych rozwiązań, które oferują "deflickering", niestety zwykle odbijałem się od paywall-u o grubości 60 - 300€ za "plugin" do Adobe AfterEffects lub LightRoom, pomijając już koszt bazowej aplikacji. Przetestowałem triale tych kilku rozwiązań. LRTimelapse oferuje dużo więcej niż deflickering i robi spore wrażenie. GBDeflicker w wersji standalone robi tylko deflickering i jest w tym skuteczny. Oba rozwiązania w mniejszym lub większym stopniu wymagają poklikania w opcje, a chciałem tego uniknąć. Jest jeszcze filtr normalize w nowszych wersjach ffmpeg, darmowy, cli i w zasadzie bezobsługowy, ale nie nadaje się akurat w tym przypadku, lepiej sprawdza się przy częstszych zmianach w naświetleniu np. co drugą klatkę. Udało mi się spłodzić w pythonie skrypt, który można odpalić bez użycia okienek i w miarę skutecznie i szybko ogarnia temat migotania. Oba powyższe tajmlapsy zostały odmigotane w sposób bezokienkowy. Poniżej wykres pokazujący wejściową jasność zdjęć, wyliczoną średnią i jasność po przejściu skryptu (2018.12.06):

Re: Zdjęcia wschodów, zachodów Słońca, chmur, błyskawic

: 04 stycznia 2019, 18:48
autor: Sniekr
Witam sfotografowałem dzisiaj coś ciekawego a przynajmniej mam taką nadzieje. Niestety moja wiedza na ten temat jest dość ograniczona dlatego mam nadzieje że wy mi pomożecie.
Moim zdaniem na 99% nie jest to tęcza. Druga sprawa jest taka że nie jestem dobry w obróbcę zdjęć (samą przygodę z fotografią zacząłem w czerwcu) więc jak ktoś się na tym zna to chętnie mu podeślę oryginalne zdjęcie to może coś więcej z tego wyciągnie ale samo zdjęcie jest kiepskie.
Obrazek

Tutaj próbowałem trochę bardziej poprawić zdjęcie ale możliwe że trochę przegiąłem.
Obrazek

Jeżeli to coś banalnego co widać codziennie to przepraszam i proszę o usunięcie posta bo szkoda zaśmiecać tematu.

Re: Zdjęcia wschodów, zachodów Słońca, chmur, błyskawic

: 04 stycznia 2019, 23:56
autor: geo
To iryzacja.
Jak byłem na studiach daawno temu była popularna u mnie na wydziale taka pozycja. Poszukaj bo widywałem na allegro.

Re: Zdjęcia wschodów, zachodów Słońca, chmur, błyskawic

: 07 stycznia 2019, 14:28
autor: spinka
Wschód Słońca 2019.01.07
Bliżej horyzontu tak jakby się "Niestabilność Kelvina-Helmholtza" tworzyła, ale może to myślenie życzeniowe tylko.


Re: Zdjęcia wschodów, zachodów Słońca, chmur, błyskawic

: 15 stycznia 2019, 17:59
autor: spinka
Dynamiczne zmiany pogody 14.01.2019
Wcześniej wrzuciłem w krótszej wersji na czacie.
Tu wersja od świtu do zmierzchu.
Ok 8ej pierwsza fala opadów śniegu była, ale głównie na południe od Naramowic. Nad Bukiem chyba wtedy zagrzmiało. Około południa u mnie już mocniej sypnęło i skończył się na 2h prąd.


Przy okazji polecam link do czterech nowych "webcamów" z panoramą Poznania: http://panorama.poznan.pl

Re: Zdjęcia wschodów, zachodów Słońca, chmur, błyskawic

: 20 stycznia 2019, 19:04
autor: spinka
Od 0:30 widać jak chmury unoszą się jakby na falach, nie wiem czy ma to inną nazwę niż "Fala":